Randolph, Minnesota
Current Conditions -  °F | °C
As of 7:53 PM on Tuesday 25 Nov 2014 (Local Time) from KSYN Reporting Station
Overcast Overcast  
Wind Chill: 17°   Ceiling: 5500
Heat Index: 26°   Visibility: 10mi
Dew Point: 16°   Wind: 8mph
Humidity: 67%   Direction: 170°S
Pressure: 30.01"   Gusts: NA
Location:  44.53°N, 93.02°W
Report Text: KSYN 260153Z AUTO 17007KT 10SM BKN055 OVC065 M03/M09 A3001 RMK AO2 T10351089
Loading
Personal Weather Stations






























Interactive Weather Map New forecast layout! Learn more

10-Day Weather Forecast

Advertisements
Track Severe Weather on mobile